createdAt,value
2019-01-29T00:02:10.400Z,6.00
2019-01-29T00:04:42.064Z,5.37
2019-01-29T00:07:13.764Z,5.70
2019-01-29T00:09:45.351Z,5.03
2019-01-29T00:12:16.847Z,5.57
2019-01-29T00:14:48.445Z,4.73
2019-01-29T00:17:19.997Z,4.90
2019-01-29T00:19:51.686Z,4.87
2019-01-29T00:22:23.289Z,4.20
2019-01-29T00:24:54.960Z,4.63
2019-01-29T00:27:26.623Z,4.50
2019-01-29T00:29:58.223Z,4.57
2019-01-29T00:32:29.810Z,4.53
2019-01-29T00:35:01.618Z,4.40
2019-01-29T00:37:33.297Z,4.20
2019-01-29T00:40:05.565Z,4.77
2019-01-29T00:42:37.164Z,4.77
2019-01-29T00:45:09.689Z,5.10
2019-01-29T00:47:41.331Z,4.53
2019-01-29T00:50:13.071Z,4.53
2019-01-29T00:52:44.705Z,4.70
2019-01-29T00:55:16.601Z,4.80
2019-01-29T00:57:48.185Z,4.30
2019-01-29T01:00:23.685Z,4.40
2019-01-29T01:02:55.257Z,4.80
2019-01-29T01:05:26.916Z,4.47
2019-01-29T01:08:00.491Z,4.70
2019-01-29T01:10:32.091Z,4.37
2019-01-29T01:13:03.681Z,4.20
2019-01-29T01:15:35.460Z,4.53
2019-01-29T01:18:07.165Z,4.17
2019-01-29T01:20:38.745Z,4.10
2019-01-29T01:23:13.855Z,5.60
2019-01-29T01:25:45.445Z,4.10
2019-01-29T01:28:17.059Z,4.10
2019-01-29T01:30:48.583Z,4.10
2019-01-29T01:33:20.214Z,4.07
2019-01-29T01:35:51.829Z,4.90
2019-01-29T01:38:25.654Z,4.73
2019-01-29T01:40:57.295Z,4.00
2019-01-29T01:43:28.833Z,4.20
2019-01-29T01:46:00.495Z,4.27
2019-01-29T01:48:33.123Z,4.20
2019-01-29T01:51:04.805Z,5.00
2019-01-29T01:53:36.305Z,4.40
2019-01-29T01:56:07.916Z,4.20
2019-01-29T01:58:40.567Z,4.83
2019-01-29T02:01:12.207Z,4.20
2019-01-29T02:03:43.803Z,5.03
2019-01-29T02:06:15.493Z,3.80
2019-01-29T02:08:47.017Z,4.53
2019-01-29T02:11:18.676Z,3.90
2019-01-29T02:13:50.280Z,3.83
2019-01-29T02:16:21.863Z,4.00
2019-01-29T02:18:53.547Z,4.73
2019-01-29T02:21:26.287Z,4.53
2019-01-29T02:23:57.939Z,4.57
2019-01-29T02:26:29.566Z,4.50
2019-01-29T02:29:01.170Z,4.30
2019-01-29T02:31:32.937Z,4.33
2019-01-29T02:34:04.582Z,4.40
2019-01-29T02:36:36.245Z,3.97
2019-01-29T02:39:10.158Z,4.60
2019-01-29T02:41:41.770Z,4.20
2019-01-29T02:44:13.343Z,4.47
2019-01-29T02:46:46.427Z,4.67
2019-01-29T02:49:18.075Z,4.03
2019-01-29T02:51:49.605Z,4.13
2019-01-29T02:54:21.355Z,4.10
2019-01-29T02:56:52.960Z,3.97
2019-01-29T02:59:24.553Z,4.13
2019-01-29T03:01:56.136Z,4.30
2019-01-29T03:04:27.705Z,5.33
2019-01-29T03:06:59.356Z,4.53
2019-01-29T03:09:30.957Z,4.10
2019-01-29T03:12:02.575Z,4.37
2019-01-29T03:14:34.195Z,4.10
2019-01-29T03:17:05.919Z,4.40
2019-01-29T03:19:37.476Z,3.70
2019-01-29T03:22:09.111Z,4.33
2019-01-29T03:24:40.719Z,4.10
2019-01-29T03:27:12.788Z,4.03
2019-01-29T03:29:44.409Z,4.30
2019-01-29T03:32:16.076Z,4.20
2019-01-29T03:34:47.630Z,5.27
2019-01-29T03:37:19.310Z,4.90
2019-01-29T03:39:51.707Z,4.90
2019-01-29T03:42:23.295Z,5.77
2019-01-29T03:44:54.912Z,4.97
2019-01-29T03:47:26.522Z,5.03
2019-01-29T03:49:58.086Z,4.70
2019-01-29T03:52:29.645Z,5.23
2019-01-29T03:55:01.315Z,4.87
2019-01-29T03:57:32.945Z,4.70
2019-01-29T04:00:05.628Z,5.10
2019-01-29T04:02:37.380Z,4.90
2019-01-29T04:05:08.960Z,5.27
2019-01-29T04:07:40.558Z,8.10
2019-01-29T04:10:15.716Z,5.90
2019-01-29T04:12:47.170Z,4.83
2019-01-29T04:15:20.035Z,5.30
2019-01-29T04:17:58.145Z,4.77
2019-01-29T04:20:29.922Z,4.80
2019-01-29T04:23:01.590Z,5.00
2019-01-29T04:25:33.184Z,5.17
2019-01-29T04:28:04.840Z,5.40
2019-01-29T04:30:36.410Z,5.80
2019-01-29T04:33:08.226Z,5.03
2019-01-29T04:35:39.794Z,6.53
2019-01-29T04:38:11.398Z,7.03
2019-01-29T04:40:43.041Z,5.97
2019-01-29T04:43:14.890Z,6.10
2019-01-29T04:45:46.456Z,5.80
2019-01-29T04:48:18.060Z,5.20
2019-01-29T04:50:49.652Z,6.00
2019-01-29T04:53:21.365Z,5.27
2019-01-29T04:55:52.907Z,5.73
2019-01-29T04:58:24.551Z,5.40
2019-01-29T05:00:56.246Z,5.50
2019-01-29T05:03:27.899Z,8.30
2019-01-29T05:05:59.398Z,6.10
2019-01-29T05:08:31.008Z,5.13
2019-01-29T05:11:02.585Z,5.97
2019-01-29T05:13:34.200Z,4.93
2019-01-29T05:16:05.789Z,6.30
2019-01-29T05:18:37.386Z,5.70
2019-01-29T05:21:09.182Z,5.17
2019-01-29T05:23:40.790Z,5.10
2019-01-29T05:26:12.494Z,5.40
2019-01-29T05:28:44.108Z,5.40
2019-01-29T05:31:15.743Z,5.30
2019-01-29T05:33:47.312Z,5.30
2019-01-29T05:36:18.885Z,5.63
2019-01-29T05:38:52.428Z,5.40
2019-01-29T05:41:23.776Z,4.50
2019-01-29T05:43:55.535Z,5.63
2019-01-29T05:46:27.064Z,4.33
2019-01-29T05:48:58.643Z,4.93
2019-01-29T05:51:30.209Z,6.17
2019-01-29T05:54:01.966Z,5.50
2019-01-29T05:56:33.491Z,6.33
2019-01-29T05:59:06.105Z,5.70
2019-01-29T06:01:38.332Z,5.43
2019-01-29T06:04:10.080Z,5.40
2019-01-29T06:06:41.641Z,6.33
2019-01-29T06:09:13.319Z,6.20
2019-01-29T06:11:44.837Z,5.60
2019-01-29T06:14:16.477Z,6.53
2019-01-29T06:16:48.008Z,5.97
2019-01-29T06:19:19.556Z,5.30
2019-01-29T06:21:51.071Z,6.30
2019-01-29T06:24:25.830Z,5.20
2019-01-29T06:26:56.028Z,4.93
2019-01-29T06:29:27.620Z,5.40
2019-01-29T06:31:59.200Z,6.30
2019-01-29T06:34:30.822Z,5.50
2019-01-29T06:37:02.594Z,4.80
2019-01-29T06:39:34.172Z,4.90
2019-01-29T06:42:05.850Z,5.33
2019-01-29T06:44:37.477Z,5.50
2019-01-29T06:47:09.248Z,5.00
2019-01-29T06:49:40.944Z,5.07
2019-01-29T06:52:12.564Z,5.17
2019-01-29T06:54:44.272Z,6.20
2019-01-29T06:57:16.706Z,4.17
2019-01-29T06:59:48.503Z,5.90
2019-01-29T07:02:20.328Z,5.17
2019-01-29T07:04:51.923Z,5.00
2019-01-29T07:07:23.610Z,5.13
2019-01-29T07:09:55.306Z,5.47
2019-01-29T07:12:26.990Z,5.00
2019-01-29T07:14:58.764Z,5.03
2019-01-29T07:17:35.730Z,5.07
2019-01-29T07:20:11.254Z,4.70
2019-01-29T07:22:42.892Z,4.53
2019-01-29T07:25:14.970Z,4.23
2019-01-29T07:27:46.564Z,5.07
2019-01-29T07:30:19.011Z,5.13
2019-01-29T07:32:50.862Z,4.80
2019-01-29T07:35:22.517Z,4.67
2019-01-29T07:37:54.225Z,4.37
2019-01-29T07:40:25.893Z,4.27
2019-01-29T07:42:58.001Z,4.70
2019-01-29T07:45:29.736Z,4.37
2019-01-29T07:48:01.315Z,4.50
2019-01-29T07:50:32.881Z,4.00
2019-01-29T07:53:04.569Z,4.13
2019-01-29T07:55:36.308Z,4.63
2019-01-29T07:58:07.902Z,4.00
2019-01-29T08:00:39.669Z,4.27
2019-01-29T08:03:11.558Z,4.20
2019-01-29T08:05:45.323Z,4.50
2019-01-29T08:08:16.656Z,4.60
2019-01-29T08:10:51.373Z,4.80
2019-01-29T08:13:23.081Z,5.40
2019-01-29T08:15:54.767Z,3.90
2019-01-29T08:18:26.400Z,4.70
2019-01-29T08:20:58.169Z,4.97
2019-01-29T08:23:31.339Z,4.33
2019-01-29T08:26:03.254Z,3.93
2019-01-29T08:28:34.915Z,4.33
2019-01-29T08:31:06.767Z,4.53
2019-01-29T08:33:38.525Z,3.90
2019-01-29T08:36:14.075Z,4.80
2019-01-29T08:38:45.909Z,4.27
2019-01-29T08:41:17.897Z,4.23
2019-01-29T08:43:49.547Z,5.27
2019-01-29T08:46:23.415Z,3.70
2019-01-29T08:48:55.271Z,4.83
2019-01-29T08:51:26.937Z,4.77
2019-01-29T08:53:58.675Z,4.30
2019-01-29T08:56:32.729Z,4.33
2019-01-29T08:59:04.357Z,3.97
2019-01-29T09:01:36.068Z,4.40
2019-01-29T09:04:07.837Z,8.97
2019-01-29T09:06:39.466Z,2.00
2019-01-29T09:09:11.391Z,2.00
2019-01-29T09:11:43.343Z,2.27
2019-01-29T09:14:15.015Z,2.30
2019-01-29T09:16:46.933Z,1.43
2019-01-29T09:19:18.892Z,1.20
2019-01-29T09:21:50.691Z,1.40
2019-01-29T09:24:22.435Z,1.10
2019-01-29T09:26:56.800Z,1.40
2019-01-29T09:29:28.407Z,1.70
2019-01-29T09:32:00.101Z,2.20
2019-01-29T09:34:31.786Z,2.10
2019-01-29T09:37:03.554Z,2.37
2019-01-29T09:39:35.171Z,2.30
2019-01-29T09:42:07.400Z,2.87
2019-01-29T09:44:38.995Z,2.77
2019-01-29T09:47:10.677Z,2.90
2019-01-29T09:49:42.349Z,2.20
2019-01-29T09:52:14.021Z,2.67
2019-01-29T09:54:45.683Z,3.23
2019-01-29T09:57:17.644Z,3.30
2019-01-29T09:59:49.405Z,3.63
2019-01-29T10:02:21.148Z,3.53
2019-01-29T10:04:52.875Z,3.63
2019-01-29T10:07:24.573Z,3.83
2019-01-29T10:09:56.152Z,2.47
2019-01-29T10:12:27.763Z,2.80
2019-01-29T10:14:59.398Z,4.17
2019-01-29T10:17:31.537Z,3.77
2019-01-29T10:20:03.390Z,3.50
2019-01-29T10:22:35.180Z,3.57
2019-01-29T10:25:10.035Z,3.67
2019-01-29T10:27:41.724Z,3.27
2019-01-29T10:30:13.863Z,3.67
2019-01-29T10:32:45.525Z,3.10
2019-01-29T10:35:19.655Z,3.27
2019-01-29T10:37:51.867Z,3.20
2019-01-29T10:40:25.240Z,2.70
2019-01-29T10:43:00.133Z,3.10
2019-01-29T10:45:34.232Z,2.90
2019-01-29T10:48:06.376Z,3.20
2019-01-29T10:50:38.235Z,3.40
2019-01-29T10:53:10.018Z,2.90
2019-01-29T10:55:47.474Z,3.00
2019-01-29T10:58:15.275Z,3.07
2019-01-29T11:00:47.201Z,2.73
2019-01-29T11:03:19.484Z,2.37
2019-01-29T11:05:52.321Z,2.40
2019-01-29T11:08:23.979Z,2.70
2019-01-29T11:10:55.792Z,3.00
2019-01-29T11:13:27.513Z,2.93
2019-01-29T11:15:59.292Z,3.13
2019-01-29T11:18:31.137Z,2.77
2019-01-29T11:21:02.838Z,2.83
2019-01-29T11:23:34.603Z,3.03
2019-01-29T11:26:07.795Z,3.00
2019-01-29T11:28:39.464Z,2.83
2019-01-29T11:31:11.218Z,2.63
2019-01-29T11:33:45.672Z,2.30
2019-01-29T11:36:17.613Z,2.70
2019-01-29T11:38:53.907Z,1.97
2019-01-29T11:41:27.480Z,2.23
2019-01-29T11:44:00.893Z,3.03
2019-01-29T11:46:32.514Z,2.60
2019-01-29T11:49:04.312Z,2.73
2019-01-29T11:51:38.300Z,2.57
2019-01-29T11:54:10.180Z,3.00
2019-01-29T11:56:41.826Z,2.70
2019-01-29T11:59:13.690Z,3.00
2019-01-29T12:01:45.345Z,2.77
2019-01-29T12:04:17.159Z,2.87
2019-01-29T12:06:48.868Z,2.90
2019-01-29T12:09:20.736Z,2.97
2019-01-29T12:11:52.319Z,2.63
2019-01-29T12:14:23.968Z,2.40
2019-01-29T12:16:55.608Z,2.57
2019-01-29T12:19:27.238Z,2.83
2019-01-29T12:21:58.990Z,3.40
2019-01-29T12:24:30.698Z,3.10
2019-01-29T12:27:02.392Z,3.07
2019-01-29T12:29:34.076Z,3.07
2019-01-29T12:32:06.012Z,3.77
2019-01-29T12:34:37.704Z,13.80
2019-01-29T12:37:09.300Z,3.50
2019-01-29T12:39:40.900Z,2.60
2019-01-29T12:42:12.586Z,2.17
2019-01-29T12:44:44.308Z,1.80
2019-01-29T12:47:16.328Z,2.27
2019-01-29T12:49:49.231Z,2.40
2019-01-29T12:52:35.708Z,2.63
2019-01-29T12:55:08.240Z,1.80
2019-01-29T12:57:39.941Z,2.50
2019-01-29T13:00:15.188Z,2.43
2019-01-29T13:02:46.907Z,2.60
2019-01-29T13:05:19.347Z,1.20
2019-01-29T13:07:54.811Z,1.30
2019-01-29T13:10:26.496Z,1.20
2019-01-29T13:12:58.217Z,0.90
2019-01-29T13:15:30.308Z,1.97
2019-01-29T13:18:01.894Z,2.20
2019-01-29T13:20:33.580Z,2.67
2019-01-29T13:23:05.383Z,2.10
2019-01-29T13:25:36.990Z,2.20
2019-01-29T13:28:08.976Z,2.30
2019-01-29T13:30:40.609Z,2.50
2019-01-29T13:33:17.302Z,1.80
2019-01-29T13:35:48.897Z,2.10
2019-01-29T13:38:20.608Z,1.90
2019-01-29T13:40:52.390Z,2.10
2019-01-29T13:43:24.019Z,2.13
2019-01-29T13:45:55.827Z,2.00
2019-01-29T13:48:27.446Z,2.63
2019-01-29T13:51:02.651Z,2.10
2019-01-29T13:53:34.326Z,1.73
2019-01-29T13:56:07.021Z,2.00
2019-01-29T13:58:38.675Z,1.93
2019-01-29T14:01:10.505Z,1.60
2019-01-29T14:03:42.101Z,1.50
2019-01-29T14:06:13.864Z,1.67
2019-01-29T14:08:45.520Z,1.47
2019-01-29T14:11:17.257Z,1.53
2019-01-29T14:13:50.804Z,1.80
2019-01-29T14:16:22.361Z,1.73
2019-01-29T14:18:54.120Z,1.50
2019-01-29T14:21:25.908Z,1.43
2019-01-29T14:23:57.625Z,1.40
2019-01-29T14:26:29.377Z,1.50
2019-01-29T14:29:01.041Z,1.10
2019-01-29T14:31:32.841Z,1.10
2019-01-29T14:34:04.560Z,1.10
2019-01-29T14:36:36.359Z,1.27
2019-01-29T14:39:47.916Z,1.20
2019-01-29T14:42:19.620Z,1.13
2019-01-29T14:44:54.604Z,1.20
2019-01-29T14:47:26.416Z,1.10
2019-01-29T14:49:57.948Z,1.30
2019-01-29T14:52:29.567Z,1.10
2019-01-29T14:55:01.205Z,1.30
2019-01-29T14:57:34.043Z,1.40
2019-01-29T15:00:19.599Z,1.50
2019-01-29T15:02:51.282Z,1.20
2019-01-29T15:05:23.240Z,1.00
2019-01-29T15:07:55.039Z,1.13
2019-01-29T15:10:27.359Z,1.10
2019-01-29T15:13:01.056Z,1.23
2019-01-29T15:15:34.810Z,1.40
2019-01-29T15:18:15.233Z,1.20
2019-01-29T15:20:46.929Z,1.37
2019-01-29T15:23:18.753Z,1.00
2019-01-29T15:25:50.539Z,1.33
2019-01-29T15:28:22.191Z,1.27
2019-01-29T15:30:53.940Z,1.43
2019-01-29T15:33:25.992Z,1.60
2019-01-29T15:35:57.620Z,1.10
2019-01-29T15:38:29.340Z,1.37
2019-01-29T15:41:01.087Z,2.23
2019-01-29T15:43:33.939Z,4.60
2019-01-29T15:46:05.818Z,4.80
2019-01-29T15:48:37.474Z,5.20
2019-01-29T15:51:09.203Z,3.13
2019-01-29T15:53:40.921Z,3.40
2019-01-29T15:56:12.566Z,2.60
2019-01-29T15:58:44.161Z,2.20
2019-01-29T16:01:17.629Z,1.90
2019-01-29T16:03:49.202Z,2.27
2019-01-29T16:06:20.754Z,2.30
2019-01-29T16:08:52.432Z,2.37
2019-01-29T16:11:24.171Z,3.10
2019-01-29T16:13:55.741Z,3.40
2019-01-29T16:16:27.345Z,4.77
2019-01-29T16:18:59.030Z,5.73
2019-01-29T16:21:30.661Z,8.63
2019-01-29T16:24:02.484Z,9.13
2019-01-29T16:26:34.231Z,5.87
2019-01-29T16:29:06.020Z,4.97
2019-01-29T16:31:37.874Z,5.83
2019-01-29T16:34:12.432Z,5.77
2019-01-29T16:36:44.092Z,6.53
2019-01-29T16:39:15.945Z,8.60
2019-01-29T16:41:48.099Z,6.07
2019-01-29T16:44:19.632Z,9.47
2019-01-29T16:46:51.306Z,9.47
2019-01-29T16:49:23.045Z,6.37
2019-01-29T16:51:54.701Z,5.57
2019-01-29T16:54:26.294Z,5.60
2019-01-29T16:56:57.859Z,4.87
2019-01-29T16:59:29.501Z,4.80
2019-01-29T17:02:01.045Z,4.40
2019-01-29T17:04:32.901Z,5.20
2019-01-29T17:07:04.462Z,5.73
2019-01-29T17:09:36.092Z,5.00
2019-01-29T17:12:07.741Z,5.60
2019-01-29T17:14:39.412Z,5.30
2019-01-29T17:17:10.890Z,5.43
2019-01-29T17:19:45.561Z,5.77
2019-01-29T17:22:17.190Z,5.80
2019-01-29T17:24:48.833Z,5.20
2019-01-29T17:27:20.415Z,5.57
2019-01-29T17:29:52.159Z,5.40
2019-01-29T17:32:30.249Z,6.27
2019-01-29T17:34:57.174Z,5.53
2019-01-29T17:37:28.976Z,6.23
2019-01-29T17:40:01.110Z,7.27
2019-01-29T17:42:33.068Z,9.70
2019-01-29T17:45:05.188Z,11.90
2019-01-29T17:47:36.942Z,9.90
2019-01-29T17:50:14.866Z,8.60
2019-01-29T17:52:46.655Z,7.70
2019-01-29T17:55:18.375Z,7.17
2019-01-29T17:57:50.673Z,6.23
2019-01-29T18:00:28.313Z,6.03
2019-01-29T18:02:59.929Z,5.97
2019-01-29T18:05:34.872Z,5.23
2019-01-29T18:08:06.557Z,5.60
2019-01-29T18:10:38.254Z,6.67
2019-01-29T18:13:09.936Z,6.60
2019-01-29T18:15:41.592Z,5.40
2019-01-29T18:18:13.216Z,6.20
2019-01-29T18:20:46.328Z,6.37
2019-01-29T18:23:17.992Z,6.07
2019-01-29T18:25:50.640Z,5.93
2019-01-29T18:28:22.222Z,5.90
2019-01-29T18:30:53.822Z,5.60
2019-01-29T18:33:25.492Z,5.80
2019-01-29T18:35:58.052Z,6.40
2019-01-29T18:38:29.627Z,6.20
2019-01-29T18:41:01.353Z,6.50
2019-01-29T18:43:32.997Z,5.73
2019-01-29T18:46:06.437Z,5.23
2019-01-29T18:48:38.015Z,5.60
2019-01-29T18:51:09.706Z,5.37
2019-01-29T18:53:41.775Z,5.07
2019-01-29T18:56:13.583Z,5.30
2019-01-29T18:58:45.114Z,5.57
2019-01-29T19:01:19.802Z,6.40
2019-01-29T19:03:51.582Z,4.80
2019-01-29T19:06:23.373Z,5.00
2019-01-29T19:08:58.078Z,4.40
2019-01-29T19:11:28.419Z,4.50
2019-01-29T19:14:00.188Z,3.77
2019-01-29T19:16:31.810Z,4.50
2019-01-29T19:19:03.495Z,3.93
2019-01-29T19:21:35.735Z,4.90
2019-01-29T19:24:07.410Z,4.90
2019-01-29T19:26:40.108Z,5.07
2019-01-29T19:29:11.718Z,4.77
2019-01-29T19:31:43.390Z,5.00
2019-01-29T19:34:17.691Z,4.93
2019-01-29T19:36:49.239Z,5.20
2019-01-29T19:39:20.795Z,5.73
2019-01-29T19:41:52.592Z,4.40
2019-01-29T19:44:24.168Z,5.37
2019-01-29T19:46:55.778Z,4.67
2019-01-29T19:49:27.324Z,4.90
2019-01-29T19:51:59.086Z,5.27
2019-01-29T19:54:32.174Z,6.13
2019-01-29T19:57:03.814Z,5.30
2019-01-29T19:59:38.534Z,5.33
2019-01-29T20:02:10.237Z,6.00
2019-01-29T20:04:41.872Z,5.83
2019-01-29T20:07:15.612Z,7.27
2019-01-29T20:09:47.384Z,8.80
2019-01-29T20:12:19.005Z,6.90
2019-01-29T20:14:50.629Z,6.07
2019-01-29T20:17:25.404Z,6.70
2019-01-29T20:20:00.096Z,6.17
2019-01-29T20:22:31.774Z,5.70
2019-01-29T20:25:03.496Z,6.40
2019-01-29T20:27:35.226Z,7.00
2019-01-29T20:30:14.722Z,6.53
2019-01-29T20:32:53.365Z,6.10
2019-01-29T20:35:21.865Z,6.37
2019-01-29T20:37:54.303Z,6.30
2019-01-29T20:40:26.040Z,6.80
2019-01-29T20:42:58.180Z,6.40
2019-01-29T20:45:29.853Z,6.80
2019-01-29T20:48:01.619Z,6.27
2019-01-29T20:50:36.110Z,6.10
2019-01-29T20:53:08.341Z,6.70
2019-01-29T20:55:39.951Z,6.10
2019-01-29T20:58:11.859Z,6.50
2019-01-29T21:04:16.671Z,7.23
2019-01-29T21:07:18.502Z,6.50
2019-01-29T21:09:57.444Z,5.73
2019-01-29T21:12:51.446Z,6.30
2019-01-29T21:15:26.142Z,6.10
2019-01-29T21:17:58.159Z,6.47
2019-01-29T21:20:32.146Z,6.80
2019-01-29T21:23:06.355Z,5.63
2019-01-29T21:25:38.300Z,6.37
2019-01-29T21:28:10.669Z,6.00
2019-01-29T21:30:45.404Z,5.70
2019-01-29T21:33:17.704Z,6.40
2019-01-29T21:35:49.711Z,6.23
2019-01-29T21:38:21.761Z,6.37
2019-01-29T21:40:53.836Z,6.23
2019-01-29T21:43:25.628Z,6.33
2019-01-29T21:45:57.349Z,5.97
2019-01-29T21:48:29.122Z,7.10
2019-01-29T21:51:00.899Z,5.70
2019-01-29T21:53:33.646Z,6.50
2019-01-29T21:56:05.598Z,6.43
2019-01-29T21:58:37.442Z,7.17
2019-01-29T22:01:09.435Z,6.60
2019-01-29T22:03:41.228Z,7.33
2019-01-29T22:06:12.930Z,7.23
2019-01-29T22:08:44.713Z,8.30
2019-01-29T22:11:17.051Z,5.83
2019-01-29T22:13:48.713Z,6.57
2019-01-29T22:16:20.394Z,6.83
2019-01-29T22:18:53.559Z,6.50
2019-01-29T22:21:25.542Z,6.63
2019-01-29T22:27:41.138Z,6.67
2019-01-29T22:30:27.239Z,5.80
2019-01-29T22:32:58.988Z,6.93
2019-01-29T22:35:41.817Z,7.00
2019-01-29T22:38:12.704Z,6.73
2019-01-29T22:40:44.674Z,5.80
2019-01-29T22:43:16.360Z,7.03
2019-01-29T22:48:51.828Z,7.70
2019-01-29T22:51:45.776Z,6.80
2019-01-29T22:54:17.423Z,7.37
2019-01-29T22:56:49.075Z,7.63
2019-01-29T22:59:20.871Z,7.13
2019-01-29T23:01:52.619Z,8.93
2019-01-29T23:04:31.454Z,7.70
2019-01-29T23:07:30.253Z,6.93
2019-01-29T23:10:05.163Z,7.57
2019-01-29T23:12:36.813Z,8.13
2019-01-29T23:15:12.167Z,8.03
2019-01-29T23:17:43.963Z,7.83
2019-01-29T23:20:16.850Z,8.50
2019-01-29T23:22:51.491Z,8.27
2019-01-29T23:25:23.169Z,7.93
2019-01-29T23:27:54.874Z,8.70
2019-01-29T23:30:29.519Z,8.50
2019-01-29T23:33:01.220Z,7.90
2019-01-29T23:35:33.009Z,8.00
2019-01-29T23:38:05.189Z,8.00
2019-01-29T23:40:39.771Z,8.40
2019-01-29T23:43:11.517Z,8.23
2019-01-29T23:45:43.151Z,8.00
2019-01-29T23:48:14.817Z,8.40
2019-01-29T23:50:49.940Z,8.37
2019-01-29T23:53:21.728Z,7.90
2019-01-29T23:55:54.781Z,8.10
2019-01-29T23:58:26.478Z,7.80
